sensor_id;sensor_type;location;lat;lon;timestamp;P1;durP1;ratioP1;P2;durP2;ratioP2
8887;SDS011;4480;52.370;9.748;2022-09-17T00:01:35;8.07;;;2.78;;
8887;SDS011;4480;52.370;9.748;2022-09-17T00:04:02;4.57;;;2.40;;
8887;SDS011;4480;52.370;9.748;2022-09-17T00:06:29;4.28;;;2.53;;
8887;SDS011;4480;52.370;9.748;2022-09-17T00:08:57;5.63;;;2.70;;
8887;SDS011;4480;52.370;9.748;2022-09-17T00:11:25;5.50;;;3.85;;
8887;SDS011;4480;52.370;9.748;2022-09-17T00:13:53;8.17;;;2.93;;
8887;SDS011;4480;52.370;9.748;2022-09-17T00:16:25;14.77;;;3.30;;
8887;SDS011;4480;52.370;9.748;2022-09-17T00:18:56;8.97;;;3.40;;
8887;SDS011;4480;52.370;9.748;2022-09-17T00:21:24;7.47;;;3.10;;
8887;SDS011;4480;52.370;9.748;2022-09-17T00:23:52;8.60;;;3.28;;
8887;SDS011;4480;52.370;9.748;2022-09-17T00:26:20;12.05;;;4.00;;
8887;SDS011;4480;52.370;9.748;2022-09-17T00:28:48;8.65;;;3.70;;
8887;SDS011;4480;52.370;9.748;2022-09-17T00:31:15;11.52;;;3.50;;
8887;SDS011;4480;52.370;9.748;2022-09-17T00:33:42;9.07;;;3.45;;
8887;SDS011;4480;52.370;9.748;2022-09-17T00:36:10;6.40;;;3.28;;
8887;SDS011;4480;52.370;9.748;2022-09-17T00:38:37;9.23;;;3.20;;
8887;SDS011;4480;52.370;9.748;2022-09-17T00:41:04;11.65;;;3.38;;
8887;SDS011;4480;52.370;9.748;2022-09-17T00:43:32;14.10;;;4.00;;
8887;SDS011;4480;52.370;9.748;2022-09-17T00:46:01;12.48;;;3.13;;
8887;SDS011;4480;52.370;9.748;2022-09-17T00:48:29;15.40;;;3.67;;
8887;SDS011;4480;52.370;9.748;2022-09-17T00:50:56;11.40;;;3.88;;
8887;SDS011;4480;52.370;9.748;2022-09-17T00:53:27;9.13;;;3.70;;
8887;SDS011;4480;52.370;9.748;2022-09-17T00:55:56;8.75;;;3.08;;
8887;SDS011;4480;52.370;9.748;2022-09-17T00:58:28;14.30;;;3.70;;
8887;SDS011;4480;52.370;9.748;2022-09-17T01:00:56;15.32;;;3.38;;
8887;SDS011;4480;52.370;9.748;2022-09-17T01:03:24;6.57;;;3.05;;
8887;SDS011;4480;52.370;9.748;2022-09-17T01:05:52;11.35;;;2.97;;
8887;SDS011;4480;52.370;9.748;2022-09-17T01:08:32;8.03;;;2.70;;
8887;SDS011;4480;52.370;9.748;2022-09-17T01:11:14;4.10;;;1.92;;
8887;SDS011;4480;52.370;9.748;2022-09-17T01:13:58;13.00;;;2.93;;
8887;SDS011;4480;52.370;9.748;2022-09-17T01:16:40;6.07;;;2.33;;
8887;SDS011;4480;52.370;9.748;2022-09-17T01:19:19;14.03;;;2.70;;
8887;SDS011;4480;52.370;9.748;2022-09-17T01:22:12;7.60;;;2.60;;
8887;SDS011;4480;52.370;9.748;2022-09-17T01:24:49;7.83;;;2.60;;
8887;SDS011;4480;52.370;9.748;2022-09-17T01:27:40;8.50;;;2.43;;
8887;SDS011;4480;52.370;9.748;2022-09-17T01:30:39;10.07;;;2.97;;
8887;SDS011;4480;52.370;9.748;2022-09-17T01:33:29;10.97;;;3.20;;
8887;SDS011;4480;52.370;9.748;2022-09-17T01:36:05;8.38;;;2.67;;
8887;SDS011;4480;52.370;9.748;2022-09-17T01:38:42;10.88;;;4.80;;
8887;SDS011;4480;52.370;9.748;2022-09-17T01:41:25;10.32;;;2.42;;
8887;SDS011;4480;52.370;9.748;2022-09-17T01:43:58;8.65;;;2.50;;
8887;SDS011;4480;52.370;9.748;2022-09-17T01:46:34;5.95;;;2.20;;
8887;SDS011;4480;52.370;9.748;2022-09-17T01:49:04;6.53;;;2.47;;
8887;SDS011;4480;52.370;9.748;2022-09-17T01:51:34;10.27;;;2.63;;
8887;SDS011;4480;52.370;9.748;2022-09-17T01:54:03;10.00;;;2.50;;
8887;SDS011;4480;52.370;9.748;2022-09-17T01:56:35;8.38;;;3.15;;
8887;SDS011;4480;52.370;9.748;2022-09-17T01:59:05;10.20;;;3.20;;
8887;SDS011;4480;52.370;9.748;2022-09-17T02:01:38;8.65;;;2.67;;
8887;SDS011;4480;52.370;9.748;2022-09-17T02:04:08;5.80;;;1.93;;
8887;SDS011;4480;52.370;9.748;2022-09-17T02:06:41;4.20;;;1.95;;
8887;SDS011;4480;52.370;9.748;2022-09-17T02:09:13;5.82;;;2.05;;
8887;SDS011;4480;52.370;9.748;2022-09-17T02:11:43;8.52;;;1.83;;
8887;SDS011;4480;52.370;9.748;2022-09-17T02:14:14;7.80;;;2.80;;
8887;SDS011;4480;52.370;9.748;2022-09-17T02:16:48;6.63;;;2.00;;
8887;SDS011;4480;52.370;9.748;2022-09-17T02:19:17;7.88;;;3.22;;
8887;SDS011;4480;52.370;9.748;2022-09-17T02:21:50;6.70;;;2.58;;
8887;SDS011;4480;52.370;9.748;2022-09-17T02:24:22;7.93;;;2.60;;
8887;SDS011;4480;52.370;9.748;2022-09-17T02:26:53;9.40;;;2.70;;
8887;SDS011;4480;52.370;9.748;2022-09-17T02:29:24;10.40;;;2.42;;
8887;SDS011;4480;52.370;9.748;2022-09-17T02:31:57;7.18;;;1.98;;
8887;SDS011;4480;52.370;9.748;2022-09-17T02:34:24;8.80;;;2.28;;
8887;SDS011;4480;52.370;9.748;2022-09-17T02:36:53;13.10;;;2.80;;
8887;SDS011;4480;52.370;9.748;2022-09-17T02:39:20;9.65;;;2.95;;
8887;SDS011;4480;52.370;9.748;2022-09-17T02:41:50;10.65;;;2.55;;
8887;SDS011;4480;52.370;9.748;2022-09-17T02:44:23;9.83;;;2.37;;
8887;SDS011;4480;52.370;9.748;2022-09-17T02:47:03;7.55;;;2.60;;
8887;SDS011;4480;52.370;9.748;2022-09-17T02:49:52;12.25;;;2.38;;
8887;SDS011;4480;52.370;9.748;2022-09-17T02:52:43;7.32;;;2.13;;
8887;SDS011;4480;52.370;9.748;2022-09-17T02:55:22;8.23;;;2.60;;
8887;SDS011;4480;52.370;9.748;2022-09-17T02:57:57;18.20;;;3.10;;
8887;SDS011;4480;52.370;9.748;2022-09-17T03:00:30;10.75;;;3.10;;
8887;SDS011;4480;52.370;9.748;2022-09-17T03:02:59;6.63;;;2.63;;
8887;SDS011;4480;52.370;9.748;2022-09-17T03:05:31;14.73;;;3.30;;
8887;SDS011;4480;52.370;9.748;2022-09-17T03:07:59;8.18;;;2.00;;
8887;SDS011;4480;52.370;9.748;2022-09-17T03:10:26;9.18;;;2.15;;
8887;SDS011;4480;52.370;9.748;2022-09-17T03:12:57;11.45;;;2.90;;
8887;SDS011;4480;52.370;9.748;2022-09-17T03:15:24;8.02;;;2.10;;
8887;SDS011;4480;52.370;9.748;2022-09-17T03:17:51;9.20;;;2.55;;
8887;SDS011;4480;52.370;9.748;2022-09-17T03:20:19;15.02;;;2.33;;
8887;SDS011;4480;52.370;9.748;2022-09-17T03:22:45;9.15;;;2.58;;
8887;SDS011;4480;52.370;9.748;2022-09-17T03:25:12;11.80;;;2.92;;
8887;SDS011;4480;52.370;9.748;2022-09-17T03:27:39;9.32;;;2.00;;
8887;SDS011;4480;52.370;9.748;2022-09-17T03:30:06;12.07;;;2.70;;
8887;SDS011;4480;52.370;9.748;2022-09-17T03:32:33;9.65;;;2.40;;
8887;SDS011;4480;52.370;9.748;2022-09-17T03:35:00;7.57;;;2.15;;
8887;SDS011;4480;52.370;9.748;2022-09-17T03:37:28;7.80;;;2.20;;
8887;SDS011;4480;52.370;9.748;2022-09-17T03:39:55;13.20;;;2.30;;
8887;SDS011;4480;52.370;9.748;2022-09-17T03:42:21;9.30;;;2.55;;
8887;SDS011;4480;52.370;9.748;2022-09-17T03:44:48;13.30;;;2.63;;
8887;SDS011;4480;52.370;9.748;2022-09-17T03:47:15;7.50;;;2.25;;
8887;SDS011;4480;52.370;9.748;2022-09-17T03:49:42;13.20;;;3.17;;
8887;SDS011;4480;52.370;9.748;2022-09-17T03:52:08;12.50;;;2.45;;
8887;SDS011;4480;52.370;9.748;2022-09-17T03:54:36;12.25;;;3.42;;
8887;SDS011;4480;52.370;9.748;2022-09-17T03:57:03;14.98;;;3.08;;
8887;SDS011;4480;52.370;9.748;2022-09-17T03:59:30;13.18;;;2.65;;
8887;SDS011;4480;52.370;9.748;2022-09-17T04:01:57;7.82;;;1.92;;
8887;SDS011;4480;52.370;9.748;2022-09-17T04:04:24;7.55;;;1.92;;
8887;SDS011;4480;52.370;9.748;2022-09-17T04:10:15;7.15;;;2.53;;
8887;SDS011;4480;52.370;9.748;2022-09-17T04:12:42;7.70;;;2.15;;
8887;SDS011;4480;52.370;9.748;2022-09-17T04:15:09;11.50;;;2.60;;
8887;SDS011;4480;52.370;9.748;2022-09-17T04:17:36;11.25;;;2.55;;
8887;SDS011;4480;52.370;9.748;2022-09-17T04:20:03;12.35;;;4.15;;
8887;SDS011;4480;52.370;9.748;2022-09-17T04:22:30;8.38;;;2.65;;
8887;SDS011;4480;52.370;9.748;2022-09-17T04:24:57;15.38;;;2.13;;
8887;SDS011;4480;52.370;9.748;2022-09-17T04:27:25;10.90;;;2.50;;
8887;SDS011;4480;52.370;9.748;2022-09-17T04:29:52;11.10;;;2.50;;
8887;SDS011;4480;52.370;9.748;2022-09-17T04:32:19;20.48;;;3.60;;
8887;SDS011;4480;52.370;9.748;2022-09-17T04:34:45;8.23;;;2.20;;
8887;SDS011;4480;52.370;9.748;2022-09-17T04:37:12;6.57;;;2.70;;
8887;SDS011;4480;52.370;9.748;2022-09-17T04:39:39;8.85;;;2.35;;
8887;SDS011;4480;52.370;9.748;2022-09-17T04:42:06;11.88;;;2.30;;
8887;SDS011;4480;52.370;9.748;2022-09-17T04:44:34;19.23;;;3.22;;
8887;SDS011;4480;52.370;9.748;2022-09-17T04:47:01;11.40;;;2.33;;
8887;SDS011;4480;52.370;9.748;2022-09-17T04:49:29;6.85;;;2.28;;
8887;SDS011;4480;52.370;9.748;2022-09-17T04:51:56;6.82;;;2.08;;
8887;SDS011;4480;52.370;9.748;2022-09-17T04:54:23;7.10;;;2.35;;
8887;SDS011;4480;52.370;9.748;2022-09-17T04:56:50;12.60;;;2.53;;
8887;SDS011;4480;52.370;9.748;2022-09-17T04:59:17;11.52;;;2.47;;
8887;SDS011;4480;52.370;9.748;2022-09-17T05:01:45;12.40;;;2.38;;
8887;SDS011;4480;52.370;9.748;2022-09-17T05:04:11;6.35;;;2.05;;
8887;SDS011;4480;52.370;9.748;2022-09-17T05:06:38;12.07;;;2.50;;
8887;SDS011;4480;52.370;9.748;2022-09-17T05:09:05;13.60;;;3.53;;
8887;SDS011;4480;52.370;9.748;2022-09-17T05:11:32;12.25;;;2.63;;
8887;SDS011;4480;52.370;9.748;2022-09-17T05:13:59;11.45;;;2.75;;
8887;SDS011;4480;52.370;9.748;2022-09-17T05:16:26;11.43;;;3.95;;
8887;SDS011;4480;52.370;9.748;2022-09-17T05:18:54;13.00;;;2.33;;
8887;SDS011;4480;52.370;9.748;2022-09-17T05:21:22;14.45;;;2.70;;
8887;SDS011;4480;52.370;9.748;2022-09-17T05:23:48;10.23;;;2.60;;
8887;SDS011;4480;52.370;9.748;2022-09-17T05:26:15;13.68;;;3.38;;
8887;SDS011;4480;52.370;9.748;2022-09-17T05:28:42;25.92;;;3.50;;
8887;SDS011;4480;52.370;9.748;2022-09-17T05:31:09;9.20;;;2.67;;
8887;SDS011;4480;52.370;9.748;2022-09-17T05:33:35;11.23;;;2.28;;
8887;SDS011;4480;52.370;9.748;2022-09-17T05:36:04;14.52;;;3.30;;
8887;SDS011;4480;52.370;9.748;2022-09-17T05:38:32;8.93;;;2.47;;
8887;SDS011;4480;52.370;9.748;2022-09-17T05:41:02;11.30;;;2.63;;
8887;SDS011;4480;52.370;9.748;2022-09-17T05:43:30;8.40;;;2.15;;
8887;SDS011;4480;52.370;9.748;2022-09-17T05:45:59;10.45;;;2.38;;
8887;SDS011;4480;52.370;9.748;2022-09-17T05:48:26;9.57;;;2.92;;
8887;SDS011;4480;52.370;9.748;2022-09-17T05:50:53;9.57;;;2.03;;
8887;SDS011;4480;52.370;9.748;2022-09-17T05:53:22;9.75;;;2.15;;
8887;SDS011;4480;52.370;9.748;2022-09-17T05:55:48;9.88;;;2.00;;
8887;SDS011;4480;52.370;9.748;2022-09-17T05:58:16;8.10;;;2.15;;
8887;SDS011;4480;52.370;9.748;2022-09-17T06:00:44;11.43;;;2.10;;
8887;SDS011;4480;52.370;9.748;2022-09-17T06:03:13;5.88;;;2.58;;
8887;SDS011;4480;52.370;9.748;2022-09-17T06:05:41;14.20;;;3.05;;
8887;SDS011;4480;52.370;9.748;2022-09-17T06:08:08;12.20;;;3.10;;
8887;SDS011;4480;52.370;9.748;2022-09-17T06:10:36;9.82;;;2.25;;
8887;SDS011;4480;52.370;9.748;2022-09-17T06:13:04;11.18;;;2.28;;
8887;SDS011;4480;52.370;9.748;2022-09-17T06:15:31;7.55;;;2.85;;
8887;SDS011;4480;52.370;9.748;2022-09-17T06:17:58;9.90;;;2.30;;
8887;SDS011;4480;52.370;9.748;2022-09-17T06:20:25;16.17;;;3.35;;
8887;SDS011;4480;52.370;9.748;2022-09-17T06:22:54;4.78;;;1.90;;
8887;SDS011;4480;52.370;9.748;2022-09-17T06:25:22;5.22;;;1.60;;
8887;SDS011;4480;52.370;9.748;2022-09-17T06:27:50;8.82;;;1.80;;
8887;SDS011;4480;52.370;9.748;2022-09-17T06:30:17;11.35;;;2.80;;
8887;SDS011;4480;52.370;9.748;2022-09-17T06:32:44;13.75;;;2.55;;
8887;SDS011;4480;52.370;9.748;2022-09-17T06:35:11;13.65;;;3.05;;
8887;SDS011;4480;52.370;9.748;2022-09-17T06:37:37;12.88;;;2.80;;
8887;SDS011;4480;52.370;9.748;2022-09-17T06:40:05;5.15;;;1.90;;
8887;SDS011;4480;52.370;9.748;2022-09-17T06:42:33;6.78;;;1.90;;
8887;SDS011;4480;52.370;9.748;2022-09-17T06:45:01;5.18;;;1.92;;
8887;SDS011;4480;52.370;9.748;2022-09-17T06:47:28;8.27;;;1.85;;
8887;SDS011;4480;52.370;9.748;2022-09-17T06:49:55;8.98;;;2.10;;
8887;SDS011;4480;52.370;9.748;2022-09-17T06:52:23;11.68;;;2.42;;
8887;SDS011;4480;52.370;9.748;2022-09-17T06:54:51;8.52;;;2.00;;
8887;SDS011;4480;52.370;9.748;2022-09-17T06:57:17;10.90;;;2.40;;
8887;SDS011;4480;52.370;9.748;2022-09-17T06:59:44;7.82;;;1.98;;
8887;SDS011;4480;52.370;9.748;2022-09-17T07:02:12;7.63;;;3.10;;
8887;SDS011;4480;52.370;9.748;2022-09-17T07:04:39;6.93;;;2.13;;
8887;SDS011;4480;52.370;9.748;2022-09-17T07:07:06;7.20;;;2.13;;
8887;SDS011;4480;52.370;9.748;2022-09-17T07:09:33;8.03;;;2.10;;
8887;SDS011;4480;52.370;9.748;2022-09-17T07:12:00;8.80;;;2.30;;
8887;SDS011;4480;52.370;9.748;2022-09-17T07:14:31;5.87;;;1.90;;
8887;SDS011;4480;52.370;9.748;2022-09-17T07:16:58;6.43;;;2.10;;
8887;SDS011;4480;52.370;9.748;2022-09-17T07:19:26;6.40;;;2.40;;
8887;SDS011;4480;52.370;9.748;2022-09-17T07:21:53;11.67;;;2.30;;
8887;SDS011;4480;52.370;9.748;2022-09-17T07:24:19;16.97;;;3.27;;
8887;SDS011;4480;52.370;9.748;2022-09-17T07:26:46;6.63;;;1.63;;
8887;SDS011;4480;52.370;9.748;2022-09-17T07:29:14;10.60;;;3.07;;
8887;SDS011;4480;52.370;9.748;2022-09-17T07:31:41;9.63;;;2.13;;
8887;SDS011;4480;52.370;9.748;2022-09-17T07:34:08;4.57;;;1.60;;
8887;SDS011;4480;52.370;9.748;2022-09-17T07:36:36;11.60;;;2.80;;
8887;SDS011;4480;52.370;9.748;2022-09-17T07:39:03;13.27;;;2.67;;
8887;SDS011;4480;52.370;9.748;2022-09-17T07:41:30;11.33;;;3.40;;
8887;SDS011;4480;52.370;9.748;2022-09-17T07:43:58;11.33;;;2.30;;
8887;SDS011;4480;52.370;9.748;2022-09-17T07:46:26;12.30;;;2.63;;
8887;SDS011;4480;52.370;9.748;2022-09-17T07:48:53;15.70;;;3.73;;
8887;SDS011;4480;52.370;9.748;2022-09-17T07:51:21;6.70;;;2.40;;
8887;SDS011;4480;52.370;9.748;2022-09-17T07:53:50;9.43;;;2.33;;
8887;SDS011;4480;52.370;9.748;2022-09-17T07:56:17;18.43;;;3.20;;
8887;SDS011;4480;52.370;9.748;2022-09-17T07:58:44;9.67;;;1.53;;
8887;SDS011;4480;52.370;9.748;2022-09-17T08:01:12;10.33;;;2.63;;
8887;SDS011;4480;52.370;9.748;2022-09-17T08:03:40;7.90;;;2.20;;
8887;SDS011;4480;52.370;9.748;2022-09-17T08:06:09;7.70;;;2.00;;
8887;SDS011;4480;52.370;9.748;2022-09-17T08:08:38;7.07;;;2.20;;
8887;SDS011;4480;52.370;9.748;2022-09-17T08:11:07;11.13;;;2.23;;
8887;SDS011;4480;52.370;9.748;2022-09-17T08:13:35;20.03;;;3.53;;
8887;SDS011;4480;52.370;9.748;2022-09-17T08:16:03;6.73;;;2.10;;
8887;SDS011;4480;52.370;9.748;2022-09-17T08:18:31;10.00;;;1.73;;
8887;SDS011;4480;52.370;9.748;2022-09-17T08:21:00;3.63;;;1.53;;
8887;SDS011;4480;52.370;9.748;2022-09-17T08:23:29;13.07;;;2.93;;
8887;SDS011;4480;52.370;9.748;2022-09-17T08:25:58;6.40;;;2.23;;
8887;SDS011;4480;52.370;9.748;2022-09-17T08:28:27;7.90;;;1.77;;
8887;SDS011;4480;52.370;9.748;2022-09-17T08:30:58;4.77;;;1.53;;
8887;SDS011;4480;52.370;9.748;2022-09-17T08:33:29;6.83;;;1.67;;
8887;SDS011;4480;52.370;9.748;2022-09-17T08:35:57;8.67;;;1.80;;
8887;SDS011;4480;52.370;9.748;2022-09-17T08:38:24;7.30;;;2.07;;
8887;SDS011;4480;52.370;9.748;2022-09-17T08:40:55;6.63;;;1.60;;
8887;SDS011;4480;52.370;9.748;2022-09-17T08:43:33;4.70;;;2.00;;
8887;SDS011;4480;52.370;9.748;2022-09-17T08:46:07;10.50;;;2.90;;
8887;SDS011;4480;52.370;9.748;2022-09-17T08:48:36;4.77;;;1.73;;
8887;SDS011;4480;52.370;9.748;2022-09-17T08:51:07;10.93;;;1.50;;
8887;SDS011;4480;52.370;9.748;2022-09-17T08:53:45;4.50;;;1.77;;
8887;SDS011;4480;52.370;9.748;2022-09-17T08:56:23;5.70;;;1.70;;
8887;SDS011;4480;52.370;9.748;2022-09-17T08:58:56;8.90;;;2.30;;
8887;SDS011;4480;52.370;9.748;2022-09-17T09:01:33;6.43;;;2.53;;
8887;SDS011;4480;52.370;9.748;2022-09-17T09:04:11;10.17;;;2.13;;
8887;SDS011;4480;52.370;9.748;2022-09-17T09:06:58;8.30;;;2.33;;
8887;SDS011;4480;52.370;9.748;2022-09-17T09:09:29;7.33;;;1.73;;
8887;SDS011;4480;52.370;9.748;2022-09-17T09:12:01;9.03;;;2.47;;
8887;SDS011;4480;52.370;9.748;2022-09-17T09:14:34;5.43;;;1.90;;
8887;SDS011;4480;52.370;9.748;2022-09-17T09:17:06;8.30;;;2.60;;
8887;SDS011;4480;52.370;9.748;2022-09-17T09:19:38;10.50;;;2.23;;
8887;SDS011;4480;52.370;9.748;2022-09-17T09:22:13;8.40;;;1.90;;
8887;SDS011;4480;52.370;9.748;2022-09-17T09:24:58;8.33;;;1.87;;
8887;SDS011;4480;52.370;9.748;2022-09-17T09:27:31;11.83;;;2.30;;
8887;SDS011;4480;52.370;9.748;2022-09-17T09:30:04;11.17;;;1.67;;
8887;SDS011;4480;52.370;9.748;2022-09-17T09:32:43;6.20;;;2.23;;
8887;SDS011;4480;52.370;9.748;2022-09-17T09:35:21;10.00;;;1.67;;
8887;SDS011;4480;52.370;9.748;2022-09-17T09:37:53;7.43;;;1.63;;
8887;SDS011;4480;52.370;9.748;2022-09-17T09:40:30;8.47;;;2.40;;
8887;SDS011;4480;52.370;9.748;2022-09-17T09:43:02;8.90;;;1.83;;
8887;SDS011;4480;52.370;9.748;2022-09-17T09:45:40;4.73;;;1.47;;
8887;SDS011;4480;52.370;9.748;2022-09-17T09:48:19;6.97;;;2.57;;
8887;SDS011;4480;52.370;9.748;2022-09-17T09:50:58;6.23;;;1.97;;
8887;SDS011;4480;52.370;9.748;2022-09-17T09:53:40;9.90;;;2.73;;
8887;SDS011;4480;52.370;9.748;2022-09-17T09:56:23;3.50;;;1.50;;
8887;SDS011;4480;52.370;9.748;2022-09-17T09:59:00;5.43;;;1.67;;
8887;SDS011;4480;52.370;9.748;2022-09-17T10:01:28;4.40;;;2.13;;
8887;SDS011;4480;52.370;9.748;2022-09-17T10:03:56;8.70;;;1.67;;
8887;SDS011;4480;52.370;9.748;2022-09-17T10:06:23;6.40;;;1.67;;
8887;SDS011;4480;52.370;9.748;2022-09-17T10:11:40;10.93;;;2.87;;
8887;SDS011;4480;52.370;9.748;2022-09-17T10:14:18;8.20;;;2.00;;
8887;SDS011;4480;52.370;9.748;2022-09-17T10:16:50;9.43;;;1.73;;
8887;SDS011;4480;52.370;9.748;2022-09-17T10:19:37;7.07;;;1.93;;
8887;SDS011;4480;52.370;9.748;2022-09-17T10:22:16;6.80;;;1.90;;
8887;SDS011;4480;52.370;9.748;2022-09-17T10:24:53;10.03;;;2.10;;
8887;SDS011;4480;52.370;9.748;2022-09-17T10:27:22;5.40;;;2.00;;
8887;SDS011;4480;52.370;9.748;2022-09-17T10:29:51;10.03;;;1.53;;
8887;SDS011;4480;52.370;9.748;2022-09-17T10:32:27;7.30;;;1.87;;
8887;SDS011;4480;52.370;9.748;2022-09-17T10:34:58;4.63;;;1.87;;
8887;SDS011;4480;52.370;9.748;2022-09-17T10:37:32;4.83;;;1.60;;
8887;SDS011;4480;52.370;9.748;2022-09-17T10:40:23;7.30;;;1.57;;
8887;SDS011;4480;52.370;9.748;2022-09-17T10:43:17;4.50;;;1.27;;
8887;SDS011;4480;52.370;9.748;2022-09-17T10:45:53;4.63;;;1.50;;
8887;SDS011;4480;52.370;9.748;2022-09-17T10:48:24;12.50;;;1.90;;
8887;SDS011;4480;52.370;9.748;2022-09-17T10:50:54;5.47;;;1.87;;
8887;SDS011;4480;52.370;9.748;2022-09-17T10:53:22;7.33;;;1.60;;
8887;SDS011;4480;52.370;9.748;2022-09-17T10:55:51;8.63;;;1.80;;
8887;SDS011;4480;52.370;9.748;2022-09-17T10:58:26;6.77;;;2.30;;
8887;SDS011;4480;52.370;9.748;2022-09-17T11:01:06;3.60;;;1.40;;
8887;SDS011;4480;52.370;9.748;2022-09-17T11:03:55;8.47;;;1.60;;
8887;SDS011;4480;52.370;9.748;2022-09-17T11:06:57;4.10;;;1.40;;
8887;SDS011;4480;52.370;9.748;2022-09-17T11:09:49;8.20;;;1.67;;
8887;SDS011;4480;52.370;9.748;2022-09-17T11:12:25;8.20;;;1.60;;
8887;SDS011;4480;52.370;9.748;2022-09-17T11:15:00;6.77;;;1.90;;
8887;SDS011;4480;52.370;9.748;2022-09-17T11:17:42;6.07;;;1.33;;
8887;SDS011;4480;52.370;9.748;2022-09-17T11:20:23;2.00;;;0.87;;
8887;SDS011;4480;52.370;9.748;2022-09-17T11:23:06;6.43;;;2.00;;
8887;SDS011;4480;52.370;9.748;2022-09-17T11:25:48;5.90;;;1.77;;
8887;SDS011;4480;52.370;9.748;2022-09-17T11:28:23;5.83;;;1.60;;
8887;SDS011;4480;52.370;9.748;2022-09-17T11:31:07;2.73;;;1.40;;
8887;SDS011;4480;52.370;9.748;2022-09-17T11:33:52;9.73;;;1.60;;
8887;SDS011;4480;52.370;9.748;2022-09-17T11:36:40;3.53;;;1.17;;
8887;SDS011;4480;52.370;9.748;2022-09-17T11:39:14;6.00;;;1.40;;
8887;SDS011;4480;52.370;9.748;2022-09-17T11:41:44;2.83;;;1.40;;
8887;SDS011;4480;52.370;9.748;2022-09-17T11:44:14;9.97;;;1.90;;
8887;SDS011;4480;52.370;9.748;2022-09-17T11:46:46;7.03;;;1.83;;
8887;SDS011;4480;52.370;9.748;2022-09-17T11:49:19;5.80;;;1.90;;
8887;SDS011;4480;52.370;9.748;2022-09-17T11:51:55;9.73;;;1.73;;
8887;SDS011;4480;52.370;9.748;2022-09-17T11:54:26;6.33;;;1.83;;
8887;SDS011;4480;52.370;9.748;2022-09-17T11:56:57;4.70;;;1.43;;
8887;SDS011;4480;52.370;9.748;2022-09-17T11:59:32;5.70;;;1.30;;
8887;SDS011;4480;52.370;9.748;2022-09-17T12:02:04;4.90;;;1.43;;
8887;SDS011;4480;52.370;9.748;2022-09-17T12:04:43;5.50;;;1.40;;
8887;SDS011;4480;52.370;9.748;2022-09-17T12:07:18;6.23;;;1.37;;
8887;SDS011;4480;52.370;9.748;2022-09-17T12:09:56;4.33;;;1.30;;
8887;SDS011;4480;52.370;9.748;2022-09-17T12:12:27;5.10;;;1.33;;
8887;SDS011;4480;52.370;9.748;2022-09-17T12:14:56;12.33;;;1.57;;
8887;SDS011;4480;52.370;9.748;2022-09-17T12:17:29;2.90;;;1.27;;
8887;SDS011;4480;52.370;9.748;2022-09-17T12:20:04;3.73;;;1.10;;
8887;SDS011;4480;52.370;9.748;2022-09-17T12:22:35;7.27;;;2.13;;
8887;SDS011;4480;52.370;9.748;2022-09-17T12:25:09;3.70;;;2.10;;
8887;SDS011;4480;52.370;9.748;2022-09-17T12:27:39;4.50;;;1.60;;
8887;SDS011;4480;52.370;9.748;2022-09-17T12:30:14;2.87;;;1.10;;
8887;SDS011;4480;52.370;9.748;2022-09-17T12:32:48;4.33;;;1.23;;
8887;SDS011;4480;52.370;9.748;2022-09-17T12:38:29;8.07;;;2.90;;
8887;SDS011;4480;52.370;9.748;2022-09-17T12:41:14;3.40;;;1.27;;
8887;SDS011;4480;52.370;9.748;2022-09-17T12:43:50;4.90;;;2.43;;
8887;SDS011;4480;52.370;9.748;2022-09-17T12:46:33;5.70;;;1.50;;
8887;SDS011;4480;52.370;9.748;2022-09-17T12:49:24;5.73;;;1.63;;
8887;SDS011;4480;52.370;9.748;2022-09-17T12:52:03;5.60;;;2.00;;
8887;SDS011;4480;52.370;9.748;2022-09-17T12:54:39;16.80;;;2.73;;
8887;SDS011;4480;52.370;9.748;2022-09-17T12:57:14;6.20;;;1.43;;
8887;SDS011;4480;52.370;9.748;2022-09-17T12:59:45;5.00;;;1.40;;
8887;SDS011;4480;52.370;9.748;2022-09-17T13:02:14;6.20;;;1.50;;
8887;SDS011;4480;52.370;9.748;2022-09-17T13:04:52;7.03;;;1.40;;
8887;SDS011;4480;52.370;9.748;2022-09-17T13:07:30;5.97;;;1.90;;
8887;SDS011;4480;52.370;9.748;2022-09-17T13:10:08;2.60;;;1.27;;
8887;SDS011;4480;52.370;9.748;2022-09-17T13:12:40;3.78;;;1.25;;
8887;SDS011;4480;52.370;9.748;2022-09-17T13:15:18;3.50;;;1.15;;
8887;SDS011;4480;52.370;9.748;2022-09-17T13:17:49;3.65;;;1.85;;
8887;SDS011;4480;52.370;9.748;2022-09-17T13:20:20;4.95;;;2.08;;
8887;SDS011;4480;52.370;9.748;2022-09-17T13:22:51;6.40;;;1.50;;
8887;SDS011;4480;52.370;9.748;2022-09-17T13:25:20;3.10;;;1.45;;
8887;SDS011;4480;52.370;9.748;2022-09-17T13:27:48;5.80;;;1.73;;
8887;SDS011;4480;52.370;9.748;2022-09-17T13:30:16;4.40;;;1.33;;
8887;SDS011;4480;52.370;9.748;2022-09-17T13:32:46;5.82;;;2.08;;
8887;SDS011;4480;52.370;9.748;2022-09-17T13:37:58;7.35;;;2.08;;
8887;SDS011;4480;52.370;9.748;2022-09-17T13:40:28;8.32;;;3.92;;
8887;SDS011;4480;52.370;9.748;2022-09-17T13:42:56;10.10;;;3.25;;
8887;SDS011;4480;52.370;9.748;2022-09-17T13:45:24;5.45;;;2.38;;
8887;SDS011;4480;52.370;9.748;2022-09-17T13:47:52;7.15;;;1.88;;
8887;SDS011;4480;52.370;9.748;2022-09-17T13:50:24;1.92;;;1.40;;
8887;SDS011;4480;52.370;9.748;2022-09-17T13:52:52;3.88;;;2.40;;
8887;SDS011;4480;52.370;9.748;2022-09-17T13:55:31;4.65;;;1.40;;
8887;SDS011;4480;52.370;9.748;2022-09-17T13:57:59;2.63;;;0.80;;
8887;SDS011;4480;52.370;9.748;2022-09-17T14:06:41;1.17;;;0.75;;
8887;SDS011;4480;52.370;9.748;2022-09-17T14:09:28;2.83;;;1.38;;
8887;SDS011;4480;52.370;9.748;2022-09-17T14:11:59;4.78;;;1.00;;
8887;SDS011;4480;52.370;9.748;2022-09-17T14:14:38;2.50;;;0.95;;
8887;SDS011;4480;52.370;9.748;2022-09-17T14:17:11;2.15;;;0.90;;
8887;SDS011;4480;52.370;9.748;2022-09-17T14:20:22;3.55;;;1.38;;
8887;SDS011;4480;52.370;9.748;2022-09-17T14:22:53;3.28;;;1.30;;
8887;SDS011;4480;52.370;9.748;2022-09-17T14:25:24;4.50;;;1.20;;
8887;SDS011;4480;52.370;9.748;2022-09-17T14:28:00;2.65;;;1.17;;
8887;SDS011;4480;52.370;9.748;2022-09-17T14:30:36;1.30;;;0.90;;
8887;SDS011;4480;52.370;9.748;2022-09-17T14:33:04;4.03;;;1.33;;
8887;SDS011;4480;52.370;9.748;2022-09-17T14:35:35;4.22;;;1.48;;
8887;SDS011;4480;52.370;9.748;2022-09-17T14:38:06;4.43;;;1.10;;
8887;SDS011;4480;52.370;9.748;2022-09-17T14:40:39;5.37;;;1.47;;
8887;SDS011;4480;52.370;9.748;2022-09-17T14:43:13;5.03;;;1.58;;
8887;SDS011;4480;52.370;9.748;2022-09-17T14:45:43;5.00;;;1.67;;
8887;SDS011;4480;52.370;9.748;2022-09-17T14:48:17;3.20;;;1.67;;
8887;SDS011;4480;52.370;9.748;2022-09-17T14:54:06;4.63;;;1.47;;
8887;SDS011;4480;52.370;9.748;2022-09-17T14:56:41;4.33;;;1.23;;
8887;SDS011;4480;52.370;9.748;2022-09-17T14:59:18;7.93;;;1.50;;
8887;SDS011;4480;52.370;9.748;2022-09-17T15:01:48;5.30;;;1.63;;
8887;SDS011;4480;52.370;9.748;2022-09-17T15:04:22;4.80;;;1.50;;
8887;SDS011;4480;52.370;9.748;2022-09-17T15:06:50;2.70;;;1.33;;
8887;SDS011;4480;52.370;9.748;2022-09-17T15:09:20;3.23;;;1.50;;
8887;SDS011;4480;52.370;9.748;2022-09-17T15:11:48;7.60;;;1.47;;
8887;SDS011;4480;52.370;9.748;2022-09-17T15:14:20;5.90;;;1.60;;
8887;SDS011;4480;52.370;9.748;2022-09-17T15:16:49;3.90;;;1.20;;
8887;SDS011;4480;52.370;9.748;2022-09-17T15:19:21;4.93;;;1.77;;
8887;SDS011;4480;52.370;9.748;2022-09-17T15:21:52;3.90;;;1.40;;
8887;SDS011;4480;52.370;9.748;2022-09-17T15:24:23;5.60;;;1.30;;
8887;SDS011;4480;52.370;9.748;2022-09-17T15:27:02;4.80;;;1.30;;
8887;SDS011;4480;52.370;9.748;2022-09-17T15:29:38;4.28;;;1.60;;
8887;SDS011;4480;52.370;9.748;2022-09-17T15:32:10;10.13;;;1.63;;
8887;SDS011;4480;52.370;9.748;2022-09-17T15:34:38;4.53;;;1.98;;
8887;SDS011;4480;52.370;9.748;2022-09-17T15:37:06;4.70;;;1.63;;
8887;SDS011;4480;52.370;9.748;2022-09-17T15:39:45;6.65;;;1.52;;
8887;SDS011;4480;52.370;9.748;2022-09-17T15:42:18;3.78;;;1.48;;
8887;SDS011;4480;52.370;9.748;2022-09-17T15:44:48;4.45;;;1.50;;
8887;SDS011;4480;52.370;9.748;2022-09-17T15:50:14;6.05;;;1.80;;
8887;SDS011;4480;52.370;9.748;2022-09-17T15:52:43;4.20;;;1.98;;
8887;SDS011;4480;52.370;9.748;2022-09-17T15:55:26;2.15;;;1.25;;
8887;SDS011;4480;52.370;9.748;2022-09-17T15:57:57;5.53;;;2.25;;
8887;SDS011;4480;52.370;9.748;2022-09-17T16:00:26;6.38;;;2.72;;
8887;SDS011;4480;52.370;9.748;2022-09-17T16:02:53;4.15;;;1.88;;
8887;SDS011;4480;52.370;9.748;2022-09-17T16:08:17;3.50;;;1.70;;